createdAt,value
2018-07-09T00:02:23.474Z,10.17
2018-07-09T00:04:51.554Z,9.23
2018-07-09T00:07:19.628Z,9.27
2018-07-09T00:09:47.690Z,9.53
2018-07-09T00:12:15.747Z,10.00
2018-07-09T00:14:44.107Z,8.80
2018-07-09T00:17:12.174Z,9.83
2018-07-09T00:19:40.243Z,10.80
2018-07-09T00:22:08.311Z,8.60
2018-07-09T00:24:36.394Z,8.20
2018-07-09T00:27:04.875Z,10.43
2018-07-09T00:29:32.922Z,8.47
2018-07-09T00:32:00.991Z,8.87
2018-07-09T00:34:29.081Z,10.03
2018-07-09T00:36:57.151Z,12.43
2018-07-09T00:39:25.544Z,12.17
2018-07-09T00:41:53.630Z,9.33
2018-07-09T00:44:21.734Z,11.90
2018-07-09T00:46:49.649Z,7.57
2018-07-09T00:49:17.722Z,8.93
2018-07-09T00:51:46.102Z,8.73
2018-07-09T00:54:14.187Z,8.47
2018-07-09T00:56:42.263Z,7.63
2018-07-09T00:59:10.331Z,8.53
2018-07-09T01:01:38.488Z,6.33
2018-07-09T01:04:06.890Z,8.47
2018-07-09T01:06:35.081Z,7.00
2018-07-09T01:09:04.474Z,9.70
2018-07-09T01:11:41.898Z,6.65
2018-07-09T01:14:09.954Z,7.50
2018-07-09T01:16:38.270Z,6.07
2018-07-09T01:19:06.342Z,6.63
2018-07-09T01:21:34.429Z,6.80
2018-07-09T01:24:02.586Z,7.37
2018-07-09T01:26:30.663Z,6.50
2018-07-09T01:28:59.246Z,9.27
2018-07-09T01:31:27.394Z,6.87
2018-07-09T01:33:55.642Z,6.30
2018-07-09T01:36:23.730Z,5.83
2018-07-09T01:38:51.795Z,9.70
2018-07-09T01:41:20.151Z,8.17
2018-07-09T01:43:48.232Z,7.83
2018-07-09T01:46:16.385Z,8.37
2018-07-09T01:48:44.468Z,6.50
2018-07-09T01:51:12.537Z,8.45
2018-07-09T01:53:40.862Z,8.67
2018-07-09T01:56:08.938Z,9.30
2018-07-09T01:58:37.011Z,8.40
2018-07-09T02:01:05.093Z,6.90
2018-07-09T02:03:32.954Z,7.13
2018-07-09T02:06:01.382Z,9.37
2018-07-09T02:08:29.455Z,6.60
2018-07-09T02:10:57.532Z,6.00
2018-07-09T02:13:25.615Z,8.03
2018-07-09T02:15:53.695Z,6.33
2018-07-09T02:18:21.770Z,7.97
2018-07-09T02:20:49.850Z,6.80
2018-07-09T02:23:17.943Z,7.47
2018-07-09T02:25:46.061Z,8.07
2018-07-09T02:28:14.162Z,6.17
2018-07-09T02:30:42.210Z,8.20
2018-07-09T02:33:10.286Z,5.93
2018-07-09T02:35:38.355Z,6.50
2018-07-09T02:38:06.479Z,7.00
2018-07-09T02:40:34.415Z,6.57
2018-07-09T02:43:03.598Z,9.33
2018-07-09T02:45:31.674Z,6.50
2018-07-09T02:47:59.743Z,8.47
2018-07-09T02:50:27.886Z,9.63
2018-07-09T02:52:55.967Z,7.83
2018-07-09T02:55:24.346Z,5.60
2018-07-09T02:57:52.418Z,5.97
2018-07-09T03:00:20.512Z,6.33
2018-07-09T03:02:48.780Z,6.00
2018-07-09T03:05:17.162Z,7.00
2018-07-09T03:07:45.526Z,6.10
2018-07-09T03:10:13.612Z,7.00
2018-07-09T03:12:41.679Z,6.73
2018-07-09T03:15:09.751Z,8.43
2018-07-09T03:17:37.818Z,7.70
2018-07-09T03:20:05.911Z,7.12
2018-07-09T03:22:33.991Z,8.60
2018-07-09T03:25:02.096Z,8.37
2018-07-09T03:27:30.169Z,7.27
2018-07-09T03:29:58.240Z,6.87
2018-07-09T03:32:26.325Z,9.83
2018-07-09T03:34:54.422Z,10.77
2018-07-09T03:37:22.494Z,9.37
2018-07-09T03:39:50.659Z,9.03
2018-07-09T03:42:18.946Z,8.50
2018-07-09T03:44:47.035Z,7.40
2018-07-09T03:47:15.126Z,7.40
2018-07-09T03:49:43.266Z,7.83
2018-07-09T03:52:11.350Z,9.03
2018-07-09T03:54:39.439Z,12.50
2018-07-09T03:57:07.290Z,7.00
2018-07-09T03:59:35.356Z,6.30
2018-07-09T04:02:08.177Z,8.80
2018-07-09T04:04:36.230Z,6.13
2018-07-09T04:07:04.253Z,6.90
2018-07-09T04:09:32.340Z,7.20
2018-07-09T04:12:00.411Z,9.27
2018-07-09T04:14:28.553Z,8.97
2018-07-09T04:16:56.628Z,7.03
2018-07-09T04:19:24.710Z,7.80
2018-07-09T04:21:52.781Z,7.17
2018-07-09T04:24:20.855Z,12.20
2018-07-09T04:26:49.242Z,11.63
2018-07-09T04:29:17.323Z,9.03
2018-07-09T04:31:45.509Z,7.43
2018-07-09T04:34:13.738Z,9.10
2018-07-09T04:36:41.734Z,16.13
2018-07-09T04:39:10.122Z,12.10
2018-07-09T04:41:38.186Z,10.47
2018-07-09T04:44:06.256Z,8.80
2018-07-09T04:46:34.334Z,9.63
2018-07-09T04:49:02.477Z,15.53
2018-07-09T04:51:30.714Z,13.53
2018-07-09T04:53:59.053Z,19.07
2018-07-09T04:56:27.562Z,13.48
2018-07-09T04:58:55.638Z,12.63
2018-07-09T05:01:23.757Z,13.53
2018-07-09T05:03:51.853Z,13.30
2018-07-09T05:06:19.921Z,14.20
2018-07-09T05:08:48.010Z,10.83
2018-07-09T05:11:16.082Z,13.83
2018-07-09T05:13:44.154Z,11.67
2018-07-09T05:16:12.227Z,11.83
2018-07-09T05:18:40.294Z,14.57
2018-07-09T05:21:08.366Z,11.80
2018-07-09T05:23:36.483Z,15.63
2018-07-09T05:26:04.604Z,25.30
2018-07-09T05:28:33.191Z,22.60
2018-07-09T05:31:01.283Z,23.80
2018-07-09T05:33:29.358Z,21.77
2018-07-09T05:35:57.448Z,18.20
2018-07-09T05:38:25.862Z,20.70
2018-07-09T05:40:54.381Z,24.87
2018-07-09T05:43:22.443Z,23.80
2018-07-09T05:45:50.517Z,25.63
2018-07-09T05:48:18.592Z,31.15
2018-07-09T05:50:46.665Z,30.67
2018-07-09T05:53:14.978Z,26.33
2018-07-09T05:55:43.068Z,27.17
2018-07-09T05:58:11.162Z,28.60
2018-07-09T06:00:39.257Z,25.17
2018-07-09T06:03:07.344Z,26.77
2018-07-09T06:05:35.495Z,20.80
2018-07-09T06:08:03.538Z,20.17
2018-07-09T06:10:31.622Z,24.33
2018-07-09T06:12:59.719Z,24.53
2018-07-09T06:15:27.814Z,24.70
2018-07-09T06:17:55.950Z,28.27
2018-07-09T06:20:24.022Z,27.40
2018-07-09T06:22:52.121Z,24.67
2018-07-09T06:25:20.237Z,27.60
2018-07-09T06:27:48.274Z,26.27
2018-07-09T06:30:16.515Z,26.60
2018-07-09T06:32:44.575Z,22.58
2018-07-09T06:35:12.645Z,22.73
2018-07-09T06:37:40.770Z,20.97
2018-07-09T06:40:09.067Z,16.40
2018-07-09T06:42:37.155Z,19.00
2018-07-09T06:45:05.320Z,18.52
2018-07-09T06:47:33.557Z,20.00
2018-07-09T06:50:01.953Z,16.95
2018-07-09T06:52:29.926Z,17.62
2018-07-09T06:54:58.150Z,15.18
2018-07-09T06:57:26.237Z,13.18
2018-07-09T06:59:54.282Z,12.80
2018-07-09T07:02:22.396Z,10.18
2018-07-09T07:04:50.467Z,14.45
2018-07-09T07:07:18.682Z,15.60
2018-07-09T07:09:46.847Z,11.75
2018-07-09T07:12:14.988Z,12.15
2018-07-09T07:14:43.064Z,8.30
2018-07-09T07:17:11.188Z,11.78
2018-07-09T07:19:39.246Z,11.68
2018-07-09T07:22:07.358Z,8.53
2018-07-09T07:24:35.438Z,5.80
2018-07-09T07:27:03.522Z,8.45
2018-07-09T07:29:31.595Z,7.80
2018-07-09T07:31:59.689Z,7.72
2018-07-09T07:34:27.779Z,9.23
2018-07-09T07:36:56.099Z,6.80
2018-07-09T07:39:24.532Z,9.50
2018-07-09T07:41:52.551Z,7.78
2018-07-09T07:44:20.630Z,14.25
2018-07-09T07:46:48.788Z,7.87
2018-07-09T07:49:16.939Z,9.08
2018-07-09T07:51:45.035Z,6.60
2018-07-09T07:54:13.295Z,11.28
2018-07-09T07:56:41.382Z,8.75
2018-07-09T07:59:09.451Z,8.18
2018-07-09T08:01:37.519Z,6.05
2018-07-09T08:04:05.726Z,8.55
2018-07-09T08:06:33.803Z,10.55
2018-07-09T08:09:01.943Z,5.12
2018-07-09T08:11:47.687Z,8.30
2018-07-09T08:13:58.249Z,6.05
2018-07-09T08:16:26.379Z,6.55
2018-07-09T08:18:54.458Z,7.28
2018-07-09T08:21:22.559Z,7.28
2018-07-09T08:23:51.024Z,6.90
2018-07-09T08:26:19.090Z,7.87
2018-07-09T08:28:47.220Z,7.78
2018-07-09T08:31:15.561Z,6.22
2018-07-09T08:33:43.587Z,7.62
2018-07-09T08:36:11.728Z,5.37
2018-07-09T08:38:39.810Z,4.12
2018-07-09T08:41:07.898Z,5.40
2018-07-09T08:43:35.975Z,4.22
2018-07-09T08:46:04.066Z,4.78
2018-07-09T08:48:32.135Z,6.55
2018-07-09T08:51:00.211Z,8.70
2018-07-09T08:53:28.576Z,6.55
2018-07-09T08:55:56.670Z,4.50
2018-07-09T08:58:24.746Z,4.28
2018-07-09T09:00:52.915Z,6.17
2018-07-09T09:03:21.003Z,3.60
2018-07-09T09:05:48.951Z,6.17
2018-07-09T09:08:17.032Z,5.92
2018-07-09T09:10:45.123Z,5.83
2018-07-09T09:13:13.191Z,6.87
2018-07-09T09:15:41.543Z,6.50
2018-07-09T09:18:09.643Z,3.45
2018-07-09T09:20:37.711Z,7.15
2018-07-09T09:23:05.786Z,4.22
2018-07-09T09:25:33.910Z,5.00
2018-07-09T09:28:01.983Z,3.33
2018-07-09T09:30:30.082Z,5.83
2018-07-09T09:32:58.182Z,5.92
2018-07-09T09:35:26.325Z,4.08
2018-07-09T09:37:54.573Z,4.85
2018-07-09T09:40:22.669Z,3.35
2018-07-09T09:42:50.755Z,5.10
2018-07-09T09:45:18.838Z,5.70
2018-07-09T09:47:46.915Z,3.67
2018-07-09T09:50:14.990Z,5.42
2018-07-09T09:52:43.062Z,2.98
2018-07-09T09:55:11.132Z,3.45
2018-07-09T09:57:39.206Z,3.92
2018-07-09T10:00:07.582Z,2.80
2018-07-09T10:02:35.704Z,2.22
2018-07-09T10:05:03.800Z,3.20
2018-07-09T10:07:31.872Z,3.45
2018-07-09T10:09:59.954Z,3.85
2018-07-09T10:12:28.030Z,2.35
2018-07-09T10:14:56.147Z,2.08
2018-07-09T10:17:24.223Z,2.70
2018-07-09T10:19:52.308Z,2.58
2018-07-09T10:22:20.370Z,1.50
2018-07-09T10:24:48.481Z,3.40
2018-07-09T10:27:16.581Z,3.37
2018-07-09T10:29:44.663Z,2.05
2018-07-09T10:32:12.736Z,2.47
2018-07-09T10:34:40.821Z,2.87
2018-07-09T10:37:08.906Z,2.25
2018-07-09T10:39:37.044Z,3.58
2018-07-09T10:42:05.086Z,2.60
2018-07-09T10:44:33.340Z,3.33
2018-07-09T10:47:01.491Z,4.80
2018-07-09T10:49:29.517Z,2.83
2018-07-09T10:51:57.589Z,2.37
2018-07-09T10:54:31.995Z,4.50
2018-07-09T10:57:00.083Z,3.98
2018-07-09T10:59:28.161Z,4.92
2018-07-09T11:01:56.232Z,5.47
2018-07-09T11:04:24.306Z,2.67
2018-07-09T11:06:52.374Z,3.77
2018-07-09T11:09:20.445Z,2.65
2018-07-09T11:11:48.499Z,2.02
2018-07-09T11:14:16.598Z,2.40
2018-07-09T11:16:44.702Z,1.55
2018-07-09T11:19:12.770Z,0.95
2018-07-09T11:21:40.921Z,1.50
2018-07-09T11:24:09.071Z,2.12
2018-07-09T11:26:37.260Z,0.90
2018-07-09T11:29:05.333Z,1.62
2018-07-09T11:31:33.405Z,2.90
2018-07-09T11:34:01.477Z,1.50
2018-07-09T11:36:29.598Z,0.93
2018-07-09T11:38:57.652Z,1.40
2018-07-09T11:41:25.895Z,2.10
2018-07-09T11:43:53.954Z,2.35
2018-07-09T11:46:22.034Z,3.45
2018-07-09T11:48:50.102Z,1.47
2018-07-09T11:51:18.179Z,6.15
2018-07-09T11:53:46.256Z,2.30
2018-07-09T11:56:14.399Z,2.90
2018-07-09T11:58:42.475Z,2.60
2018-07-09T12:01:10.524Z,1.40
2018-07-09T12:03:38.610Z,1.62
2018-07-09T12:06:06.686Z,4.12
2018-07-09T12:08:34.756Z,3.33
2018-07-09T12:11:02.847Z,1.42
2018-07-09T12:13:30.906Z,1.95
2018-07-09T12:15:59.002Z,3.45
2018-07-09T12:18:27.902Z,2.33
2018-07-09T12:20:55.985Z,2.85
2018-07-09T12:23:24.054Z,3.27
2018-07-09T12:25:52.155Z,2.05
2018-07-09T12:28:20.198Z,2.12
2018-07-09T12:30:48.275Z,2.37
2018-07-09T12:33:16.344Z,1.40
2018-07-09T12:35:44.442Z,2.65
2018-07-09T12:38:12.955Z,2.40
2018-07-09T12:40:41.030Z,1.62
2018-07-09T12:43:09.470Z,2.85
2018-07-09T12:45:37.546Z,1.95
2018-07-09T12:48:05.878Z,3.08
2018-07-09T12:50:33.951Z,3.00
2018-07-09T12:53:02.007Z,2.50
2018-07-09T12:55:30.150Z,3.12
2018-07-09T12:57:58.206Z,2.50
2018-07-09T13:00:26.277Z,2.22
2018-07-09T13:02:54.350Z,1.80
2018-07-09T13:05:22.426Z,3.80
2018-07-09T13:07:50.733Z,2.12
2018-07-09T13:10:18.806Z,2.87
2018-07-09T13:12:46.883Z,3.58
2018-07-09T13:15:14.954Z,3.47
2018-07-09T13:17:43.050Z,2.37
2018-07-09T13:20:11.135Z,2.30
2018-07-09T13:22:39.428Z,4.28
2018-07-09T13:25:07.501Z,6.90
2018-07-09T13:27:35.439Z,7.13
2018-07-09T13:30:03.810Z,4.17
2018-07-09T13:32:31.884Z,4.92
2018-07-09T13:34:59.942Z,3.08
2018-07-09T13:37:28.043Z,2.62
2018-07-09T13:39:56.114Z,5.12
2018-07-09T13:42:24.216Z,3.00
2018-07-09T13:44:52.325Z,2.35
2018-07-09T13:47:20.578Z,3.75
2018-07-09T13:49:48.704Z,5.12
2018-07-09T13:52:17.058Z,3.72
2018-07-09T13:54:45.125Z,3.98
2018-07-09T13:57:13.198Z,9.18
2018-07-09T13:59:41.282Z,11.95
2018-07-09T14:02:09.487Z,8.25
2018-07-09T14:04:37.608Z,5.80
2018-07-09T14:07:05.742Z,6.30
2018-07-09T14:09:33.595Z,9.05
2018-07-09T14:12:01.735Z,7.92
2018-07-09T14:14:29.832Z,6.67
2018-07-09T14:16:58.186Z,6.15
2018-07-09T14:20:38.103Z,8.35
2018-07-09T14:23:07.374Z,6.87
2018-07-09T14:25:35.642Z,6.92
2018-07-09T14:28:03.742Z,5.83
2018-07-09T14:30:31.887Z,6.00
2018-07-09T14:33:00.147Z,5.72
2018-07-09T14:35:28.549Z,6.58
2018-07-09T14:37:56.596Z,7.78
2018-07-09T14:40:24.887Z,6.58
2018-07-09T14:42:52.996Z,6.03
2018-07-09T14:45:21.082Z,5.58
2018-07-09T14:47:49.502Z,5.28
2018-07-09T14:50:17.602Z,5.30
2018-07-09T14:52:45.717Z,4.72
2018-07-09T14:55:13.886Z,4.70
2018-07-09T14:57:41.964Z,5.05
2018-07-09T15:00:10.370Z,4.28
2018-07-09T15:02:38.440Z,4.75
2018-07-09T15:05:06.514Z,5.28
2018-07-09T15:07:34.612Z,5.08
2018-07-09T15:10:03.763Z,5.97
2018-07-09T15:12:31.983Z,5.15
2018-07-09T15:15:00.051Z,5.20
2018-07-09T15:17:29.383Z,6.53
2018-07-09T15:19:57.603Z,4.72
2018-07-09T15:22:25.683Z,7.72
2018-07-09T15:24:53.754Z,9.27
2018-07-09T15:27:22.423Z,6.22
2018-07-09T15:29:50.558Z,7.72
2018-07-09T15:32:20.854Z,5.75
2018-07-09T15:34:49.182Z,5.78
2018-07-09T15:37:17.578Z,7.55
2018-07-09T15:39:45.789Z,6.92
2018-07-09T15:42:14.191Z,8.15
2018-07-09T15:44:42.249Z,7.47
2018-07-09T15:47:10.315Z,6.85
2018-07-09T15:49:38.982Z,6.87
2018-07-09T15:52:07.048Z,6.92
2018-07-09T15:54:35.184Z,3.95
2018-07-09T15:57:03.243Z,6.55
2018-07-09T15:59:31.314Z,5.28
2018-07-09T16:01:59.636Z,5.90
2018-07-09T16:04:27.875Z,5.53
2018-07-09T16:06:56.113Z,7.92
2018-07-09T16:09:24.174Z,6.87
2018-07-09T16:11:52.356Z,6.25
2018-07-09T16:14:20.516Z,6.10
2018-07-09T16:16:48.603Z,9.25
2018-07-09T16:19:16.665Z,7.20
2018-07-09T16:21:44.797Z,9.03
2018-07-09T16:24:13.019Z,7.00
2018-07-09T16:26:41.101Z,6.12
2018-07-09T16:29:09.261Z,9.08
2018-07-09T16:31:37.266Z,9.43
2018-07-09T16:34:05.123Z,10.98
2018-07-09T16:36:33.206Z,7.28
2018-07-09T16:39:01.680Z,8.83
2018-07-09T16:41:29.787Z,12.95
2018-07-09T16:43:57.989Z,8.13
2018-07-09T16:46:26.075Z,11.78
2018-07-09T16:48:54.173Z,12.95
2018-07-09T16:51:22.240Z,9.28
2018-07-09T16:53:50.098Z,9.58
2018-07-09T16:56:18.193Z,9.40
2018-07-09T16:58:46.240Z,7.90
2018-07-09T17:01:14.310Z,9.33
2018-07-09T17:03:42.734Z,13.55
2018-07-09T17:06:10.808Z,9.15
2018-07-09T17:08:38.871Z,7.35
2018-07-09T17:11:06.943Z,7.57
2018-07-09T17:13:35.043Z,7.83
2018-07-09T17:16:03.375Z,9.20
2018-07-09T17:18:31.443Z,9.07
2018-07-09T17:20:59.590Z,11.03
2018-07-09T17:23:27.663Z,10.10
2018-07-09T17:25:55.731Z,10.58
2018-07-09T17:28:24.082Z,7.72
2018-07-09T17:30:52.176Z,9.18
2018-07-09T17:33:20.250Z,7.33
2018-07-09T17:35:48.335Z,8.20
2018-07-09T17:38:16.420Z,11.03
2018-07-09T17:40:44.490Z,5.30
2018-07-09T17:43:12.543Z,8.80
2018-07-09T17:45:40.738Z,7.33
2018-07-09T17:48:08.818Z,13.37
2018-07-09T17:50:36.894Z,10.53
2018-07-09T17:53:04.975Z,13.50
2018-07-09T17:55:33.052Z,5.93
2018-07-09T17:58:01.114Z,5.57
2018-07-09T18:00:29.184Z,7.87
2018-07-09T18:02:57.424Z,7.80
2018-07-09T18:05:25.487Z,6.30
2018-07-09T18:07:53.573Z,6.55
2018-07-09T18:10:21.712Z,9.07
2018-07-09T18:12:49.710Z,8.63
2018-07-09T18:15:17.781Z,9.13
2018-07-09T18:17:45.880Z,10.07
2018-07-09T18:20:13.974Z,7.27
2018-07-09T18:22:42.035Z,4.83
2018-07-09T18:25:10.111Z,5.80
2018-07-09T18:27:38.454Z,9.37
2018-07-09T18:30:06.984Z,5.10
2018-07-09T18:32:35.070Z,8.53
2018-07-09T18:35:03.360Z,9.27
2018-07-09T18:37:31.409Z,11.07
2018-07-09T18:39:59.510Z,9.33
2018-07-09T18:42:27.882Z,9.03
2018-07-09T18:44:55.946Z,9.77
2018-07-09T18:47:24.022Z,10.53
2018-07-09T18:49:52.091Z,9.20
2018-07-09T18:52:20.156Z,5.47
2018-07-09T18:54:48.215Z,6.47
2018-07-09T18:57:16.389Z,6.53
2018-07-09T18:59:44.466Z,10.50
2018-07-09T19:02:12.532Z,7.83
2018-07-09T19:04:40.610Z,11.60
2018-07-09T19:07:09.960Z,10.73
2018-07-09T19:09:39.067Z,4.70
2018-07-09T19:12:08.114Z,4.90
2018-07-09T19:14:39.447Z,7.53
2018-07-09T19:18:22.082Z,3.53
2018-07-09T19:21:37.549Z,8.00
2018-07-09T19:24:06.102Z,7.00
2018-07-09T19:26:33.223Z,12.30
2018-07-09T19:29:00.381Z,6.10
2018-07-09T19:31:27.524Z,11.57
2018-07-09T19:33:54.694Z,5.97
2018-07-09T19:36:21.834Z,6.17
2018-07-09T19:38:48.998Z,7.87
2018-07-09T19:41:16.167Z,3.67
2018-07-09T19:43:43.570Z,6.40
2018-07-09T19:46:10.721Z,8.97
2018-07-09T19:48:38.412Z,7.50
2018-07-09T19:51:05.591Z,5.30
2018-07-09T19:53:32.754Z,6.83
2018-07-09T19:56:00.336Z,9.07
2018-07-09T19:58:29.014Z,6.67
2018-07-09T20:00:56.240Z,7.93
2018-07-09T20:03:23.409Z,7.53
2018-07-09T20:05:50.538Z,8.80
2018-07-09T20:08:17.729Z,7.23
2018-07-09T20:10:50.412Z,4.97
2018-07-09T20:13:23.000Z,7.13
2018-07-09T20:15:55.643Z,6.57
2018-07-09T20:18:22.870Z,8.43
2018-07-09T20:20:50.037Z,3.17
2018-07-09T20:23:17.282Z,5.73
2018-07-09T20:25:44.427Z,3.70
2018-07-09T20:28:11.624Z,7.70
2018-07-09T20:30:38.764Z,3.30
2018-07-09T20:33:05.905Z,7.47
2018-07-09T20:35:33.052Z,6.37
2018-07-09T20:38:00.213Z,5.30
2018-07-09T20:40:27.346Z,4.63
2018-07-09T20:42:54.515Z,7.03
2018-07-09T20:45:21.766Z,4.20
2018-07-09T20:47:49.058Z,4.50
2018-07-09T20:50:16.228Z,2.03
2018-07-09T20:52:43.366Z,5.73
2018-07-09T20:55:10.534Z,3.37
2018-07-09T20:57:37.684Z,4.73
2018-07-09T21:00:04.858Z,5.87
2018-07-09T21:02:31.994Z,3.23
2018-07-09T21:04:59.175Z,2.63
2018-07-09T21:07:26.353Z,5.30
2018-07-09T21:09:53.495Z,7.77
2018-07-09T21:12:20.678Z,5.93
2018-07-09T21:14:47.821Z,5.10
2018-07-09T21:17:15.031Z,6.53
2018-07-09T21:19:42.377Z,5.93
2018-07-09T21:22:09.570Z,5.20
2018-07-09T21:24:36.770Z,3.73
2018-07-09T21:27:03.967Z,3.23
2018-07-09T21:29:31.192Z,4.90
2018-07-09T21:31:58.470Z,6.43
2018-07-09T21:34:25.608Z,10.33
2018-07-09T21:36:53.057Z,7.80
2018-07-09T21:39:20.195Z,6.43
2018-07-09T21:41:47.357Z,8.60
2018-07-09T21:44:14.492Z,7.85
2018-07-09T21:46:41.632Z,4.37
2018-07-09T21:49:08.834Z,8.10
2018-07-09T21:51:35.994Z,9.30
2018-07-09T21:54:03.135Z,8.83
2018-07-09T21:56:30.333Z,5.57
2018-07-09T21:58:57.423Z,4.37
2018-07-09T22:01:24.867Z,6.83
2018-07-09T22:03:52.011Z,7.00
2018-07-09T22:06:19.138Z,7.30
2018-07-09T22:08:46.286Z,9.80
2018-07-09T22:11:13.438Z,6.73
2018-07-09T22:13:40.918Z,4.93
2018-07-09T22:16:08.074Z,10.53
2018-07-09T22:18:35.223Z,8.40
2018-07-09T22:21:02.413Z,7.00
2018-07-09T22:23:29.586Z,5.60
2018-07-09T22:25:57.135Z,8.43
2018-07-09T22:28:24.262Z,3.57
2018-07-09T22:30:52.467Z,9.30
2018-07-09T22:33:20.523Z,8.07
2018-07-09T22:35:48.542Z,9.25
2018-07-09T22:38:16.615Z,11.07
2018-07-09T22:40:44.699Z,4.43
2018-07-09T22:43:24.338Z,7.93
2018-07-09T22:45:52.419Z,4.50
2018-07-09T22:48:20.490Z,2.37
2018-07-09T22:50:48.633Z,4.40
2018-07-09T22:53:16.723Z,3.00
2018-07-09T22:55:56.410Z,4.30
2018-07-09T22:58:24.474Z,5.07
2018-07-09T23:00:52.554Z,3.30
2018-07-09T23:03:20.606Z,2.77
2018-07-09T23:05:48.650Z,5.03
2018-07-09T23:08:16.726Z,2.53
2018-07-09T23:11:20.236Z,3.70
2018-07-09T23:16:06.737Z,4.53
2018-07-09T23:18:59.708Z,3.43
2018-07-09T23:21:41.006Z,4.73
2018-07-09T23:24:08.176Z,4.95
2018-07-09T23:26:35.338Z,5.57
2018-07-09T23:29:02.498Z,6.50
2018-07-09T23:31:29.642Z,1.53
2018-07-09T23:33:56.832Z,5.20
2018-07-09T23:36:24.118Z,2.33
2018-07-09T23:38:51.980Z,3.90
2018-07-09T23:41:19.117Z,5.27
2018-07-09T23:43:46.252Z,5.03
2018-07-09T23:46:13.402Z,7.10
2018-07-09T23:48:40.586Z,6.30
2018-07-09T23:51:07.803Z,5.30
2018-07-09T23:53:34.869Z,5.47
2018-07-09T23:58:38.098Z,6.73
